sensor_id;sensor_type;location;lat;lon;timestamp;P1;durP1;ratioP1;P2;durP2;ratioP2
17361;SDS011;8798;51.938;4.348;2023-08-31T00:02:26;3.17;;;1.77;;
17361;SDS011;8798;51.938;4.348;2023-08-31T00:04:54;2.00;;;1.23;;
17361;SDS011;8798;51.938;4.348;2023-08-31T00:07:24;3.90;;;1.10;;
17361;SDS011;8798;51.938;4.348;2023-08-31T00:09:55;1.50;;;1.10;;
17361;SDS011;8798;51.938;4.348;2023-08-31T00:12:24;2.87;;;1.20;;
17361;SDS011;8798;51.938;4.348;2023-08-31T00:14:54;9.17;;;1.50;;
17361;SDS011;8798;51.938;4.348;2023-08-31T00:17:31;3.97;;;0.93;;
17361;SDS011;8798;51.938;4.348;2023-08-31T00:20:02;3.10;;;0.70;;
17361;SDS011;8798;51.938;4.348;2023-08-31T00:22:48;0.80;;;0.60;;
17361;SDS011;8798;51.938;4.348;2023-08-31T00:25:20;0.70;;;0.60;;
17361;SDS011;8798;51.938;4.348;2023-08-31T00:27:49;1.57;;;0.70;;
17361;SDS011;8798;51.938;4.348;2023-08-31T00:30:19;1.20;;;0.57;;
17361;SDS011;8798;51.938;4.348;2023-08-31T00:32:54;0.63;;;0.60;;
17361;SDS011;8798;51.938;4.348;2023-08-31T00:35:27;2.00;;;0.80;;
17361;SDS011;8798;51.938;4.348;2023-08-31T00:37:58;2.63;;;0.80;;
17361;SDS011;8798;51.938;4.348;2023-08-31T00:40:27;1.23;;;0.60;;
17361;SDS011;8798;51.938;4.348;2023-08-31T00:43:00;1.73;;;1.60;;
17361;SDS011;8798;51.938;4.348;2023-08-31T00:45:31;2.70;;;1.50;;
17361;SDS011;8798;51.938;4.348;2023-08-31T00:48:00;2.37;;;2.17;;
17361;SDS011;8798;51.938;4.348;2023-08-31T00:50:29;2.10;;;1.90;;
17361;SDS011;8798;51.938;4.348;2023-08-31T00:53:01;2.80;;;1.10;;
17361;SDS011;8798;51.938;4.348;2023-08-31T00:55:35;1.43;;;1.00;;
17361;SDS011;8798;51.938;4.348;2023-08-31T00:58:07;0.90;;;0.70;;
17361;SDS011;8798;51.938;4.348;2023-08-31T01:00:40;1.00;;;0.90;;
17361;SDS011;8798;51.938;4.348;2023-08-31T01:03:19;1.60;;;1.07;;
17361;SDS011;8798;51.938;4.348;2023-08-31T01:06:00;3.00;;;0.83;;
17361;SDS011;8798;51.938;4.348;2023-08-31T01:08:41;2.80;;;0.80;;
17361;SDS011;8798;51.938;4.348;2023-08-31T01:11:19;4.87;;;1.00;;
17361;SDS011;8798;51.938;4.348;2023-08-31T01:14:00;1.40;;;1.00;;
17361;SDS011;8798;51.938;4.348;2023-08-31T01:16:30;1.40;;;1.20;;
17361;SDS011;8798;51.938;4.348;2023-08-31T01:19:08;3.03;;;1.10;;
17361;SDS011;8798;51.938;4.348;2023-08-31T01:21:55;2.40;;;1.20;;
17361;SDS011;8798;51.938;4.348;2023-08-31T01:24:29;2.77;;;1.70;;
17361;SDS011;8798;51.938;4.348;2023-08-31T01:26:58;1.73;;;1.37;;
17361;SDS011;8798;51.938;4.348;2023-08-31T01:29:26;1.63;;;1.37;;
17361;SDS011;8798;51.938;4.348;2023-08-31T01:31:58;3.37;;;2.00;;
17361;SDS011;8798;51.938;4.348;2023-08-31T01:34:31;5.47;;;2.23;;
17361;SDS011;8798;51.938;4.348;2023-08-31T01:37:00;1.97;;;1.30;;
17361;SDS011;8798;51.938;4.348;2023-08-31T01:39:46;5.77;;;1.80;;
17361;SDS011;8798;51.938;4.348;2023-08-31T01:42:20;5.17;;;3.07;;
17361;SDS011;8798;51.938;4.348;2023-08-31T01:45:00;11.20;;;2.30;;
17361;SDS011;8798;51.938;4.348;2023-08-31T01:47:36;4.20;;;1.50;;
17361;SDS011;8798;51.938;4.348;2023-08-31T01:50:05;4.67;;;1.87;;
17361;SDS011;8798;51.938;4.348;2023-08-31T01:52:43;2.53;;;1.33;;
17361;SDS011;8798;51.938;4.348;2023-08-31T01:55:19;4.23;;;2.00;;
17361;SDS011;8798;51.938;4.348;2023-08-31T01:57:49;4.57;;;1.57;;
17361;SDS011;8798;51.938;4.348;2023-08-31T02:00:19;4.43;;;1.77;;
17361;SDS011;8798;51.938;4.348;2023-08-31T02:02:51;2.73;;;1.20;;
17361;SDS011;8798;51.938;4.348;2023-08-31T02:05:23;4.50;;;1.47;;
17361;SDS011;8798;51.938;4.348;2023-08-31T02:07:54;1.87;;;1.53;;
17361;SDS011;8798;51.938;4.348;2023-08-31T02:10:31;5.80;;;1.77;;
17361;SDS011;8798;51.938;4.348;2023-08-31T02:13:04;4.03;;;1.70;;
17361;SDS011;8798;51.938;4.348;2023-08-31T02:15:38;3.27;;;2.00;;
17361;SDS011;8798;51.938;4.348;2023-08-31T02:18:07;3.53;;;1.30;;
17361;SDS011;8798;51.938;4.348;2023-08-31T02:20:42;7.13;;;1.53;;
17361;SDS011;8798;51.938;4.348;2023-08-31T02:23:10;2.97;;;1.30;;
17361;SDS011;8798;51.938;4.348;2023-08-31T02:25:40;2.77;;;1.00;;
17361;SDS011;8798;51.938;4.348;2023-08-31T02:28:08;4.67;;;1.00;;
17361;SDS011;8798;51.938;4.348;2023-08-31T02:30:37;1.40;;;1.00;;
17361;SDS011;8798;51.938;4.348;2023-08-31T02:33:08;2.20;;;1.37;;
17361;SDS011;8798;51.938;4.348;2023-08-31T02:35:38;2.70;;;1.80;;
17361;SDS011;8798;51.938;4.348;2023-08-31T02:38:06;3.73;;;2.17;;
17361;SDS011;8798;51.938;4.348;2023-08-31T02:40:35;2.33;;;1.10;;
17361;SDS011;8798;51.938;4.348;2023-08-31T02:43:07;3.07;;;1.10;;
17361;SDS011;8798;51.938;4.348;2023-08-31T02:45:38;2.57;;;1.13;;
17361;SDS011;8798;51.938;4.348;2023-08-31T02:48:07;2.47;;;1.53;;
17361;SDS011;8798;51.938;4.348;2023-08-31T02:50:38;3.50;;;1.10;;
17361;SDS011;8798;51.938;4.348;2023-08-31T02:53:08;2.90;;;1.43;;
17361;SDS011;8798;51.938;4.348;2023-08-31T02:55:41;2.57;;;1.70;;
17361;SDS011;8798;51.938;4.348;2023-08-31T02:58:11;2.20;;;1.50;;
17361;SDS011;8798;51.938;4.348;2023-08-31T03:00:42;2.70;;;1.13;;
17361;SDS011;8798;51.938;4.348;2023-08-31T03:03:13;1.73;;;1.17;;
17361;SDS011;8798;51.938;4.348;2023-08-31T03:05:48;1.80;;;1.30;;
17361;SDS011;8798;51.938;4.348;2023-08-31T03:08:18;2.67;;;1.00;;
17361;SDS011;8798;51.938;4.348;2023-08-31T03:10:52;2.03;;;0.90;;
17361;SDS011;8798;51.938;4.348;2023-08-31T03:13:27;2.40;;;1.73;;
17361;SDS011;8798;51.938;4.348;2023-08-31T03:15:58;1.57;;;1.00;;
17361;SDS011;8798;51.938;4.348;2023-08-31T03:18:29;1.63;;;1.30;;
17361;SDS011;8798;51.938;4.348;2023-08-31T03:20:58;2.03;;;1.60;;
17361;SDS011;8798;51.938;4.348;2023-08-31T03:23:26;9.57;;;1.27;;
17361;SDS011;8798;51.938;4.348;2023-08-31T03:26:05;1.40;;;0.97;;
17361;SDS011;8798;51.938;4.348;2023-08-31T03:28:37;2.37;;;1.13;;
17361;SDS011;8798;51.938;4.348;2023-08-31T03:31:09;1.70;;;1.30;;
17361;SDS011;8798;51.938;4.348;2023-08-31T03:33:38;1.77;;;1.20;;
17361;SDS011;8798;51.938;4.348;2023-08-31T03:36:08;3.20;;;1.03;;
17361;SDS011;8798;51.938;4.348;2023-08-31T03:38:41;2.00;;;1.00;;
17361;SDS011;8798;51.938;4.348;2023-08-31T03:41:14;2.30;;;1.70;;
17361;SDS011;8798;51.938;4.348;2023-08-31T03:43:50;1.93;;;1.20;;
17361;SDS011;8798;51.938;4.348;2023-08-31T03:46:19;2.17;;;0.80;;
17361;SDS011;8798;51.938;4.348;2023-08-31T03:48:48;1.70;;;1.43;;
17361;SDS011;8798;51.938;4.348;2023-08-31T03:51:18;2.23;;;2.00;;
17361;SDS011;8798;51.938;4.348;2023-08-31T03:53:46;6.80;;;1.40;;
17361;SDS011;8798;51.938;4.348;2023-08-31T03:56:16;2.07;;;1.17;;
17361;SDS011;8798;51.938;4.348;2023-08-31T03:58:44;3.80;;;1.00;;
17361;SDS011;8798;51.938;4.348;2023-08-31T04:01:15;2.50;;;1.10;;
17361;SDS011;8798;51.938;4.348;2023-08-31T04:03:46;0.77;;;0.70;;
17361;SDS011;8798;51.938;4.348;2023-08-31T04:06:18;1.13;;;1.00;;
17361;SDS011;8798;51.938;4.348;2023-08-31T04:08:46;3.90;;;0.93;;
17361;SDS011;8798;51.938;4.348;2023-08-31T04:11:15;1.67;;;1.40;;
17361;SDS011;8798;51.938;4.348;2023-08-31T04:13:45;2.63;;;1.00;;
17361;SDS011;8798;51.938;4.348;2023-08-31T04:16:14;3.80;;;1.40;;
17361;SDS011;8798;51.938;4.348;2023-08-31T04:18:44;3.83;;;1.10;;
17361;SDS011;8798;51.938;4.348;2023-08-31T04:21:18;3.57;;;1.77;;
17361;SDS011;8798;51.938;4.348;2023-08-31T04:24:00;1.93;;;1.33;;
17361;SDS011;8798;51.938;4.348;2023-08-31T04:26:32;3.67;;;1.20;;
17361;SDS011;8798;51.938;4.348;2023-08-31T04:29:00;2.27;;;1.00;;
17361;SDS011;8798;51.938;4.348;2023-08-31T04:31:39;1.50;;;1.40;;
17361;SDS011;8798;51.938;4.348;2023-08-31T04:34:07;2.20;;;1.00;;
17361;SDS011;8798;51.938;4.348;2023-08-31T04:36:36;2.40;;;0.80;;
17361;SDS011;8798;51.938;4.348;2023-08-31T04:39:07;3.50;;;1.00;;
17361;SDS011;8798;51.938;4.348;2023-08-31T04:41:36;1.53;;;0.87;;
17361;SDS011;8798;51.938;4.348;2023-08-31T04:44:07;3.80;;;2.03;;
17361;SDS011;8798;51.938;4.348;2023-08-31T04:46:38;3.70;;;1.50;;
17361;SDS011;8798;51.938;4.348;2023-08-31T04:49:08;3.10;;;1.00;;
17361;SDS011;8798;51.938;4.348;2023-08-31T04:51:39;4.27;;;1.00;;
17361;SDS011;8798;51.938;4.348;2023-08-31T04:54:08;1.40;;;1.30;;
17361;SDS011;8798;51.938;4.348;2023-08-31T04:56:39;2.90;;;0.90;;
17361;SDS011;8798;51.938;4.348;2023-08-31T04:59:08;1.10;;;0.80;;
17361;SDS011;8798;51.938;4.348;2023-08-31T05:01:40;3.47;;;0.90;;
17361;SDS011;8798;51.938;4.348;2023-08-31T05:04:08;2.93;;;1.00;;
17361;SDS011;8798;51.938;4.348;2023-08-31T05:06:38;2.23;;;0.80;;
17361;SDS011;8798;51.938;4.348;2023-08-31T05:09:07;1.30;;;0.70;;
17361;SDS011;8798;51.938;4.348;2023-08-31T05:11:41;1.70;;;0.70;;
17361;SDS011;8798;51.938;4.348;2023-08-31T05:14:09;2.03;;;0.90;;
17361;SDS011;8798;51.938;4.348;2023-08-31T05:16:49;1.53;;;0.63;;
17361;SDS011;8798;51.938;4.348;2023-08-31T05:19:18;2.20;;;0.77;;
17361;SDS011;8798;51.938;4.348;2023-08-31T05:21:47;1.47;;;0.70;;
17361;SDS011;8798;51.938;4.348;2023-08-31T05:24:19;3.43;;;0.87;;
17361;SDS011;8798;51.938;4.348;2023-08-31T05:26:51;2.57;;;0.73;;
17361;SDS011;8798;51.938;4.348;2023-08-31T05:29:22;1.13;;;0.77;;
17361;SDS011;8798;51.938;4.348;2023-08-31T05:31:59;1.97;;;0.70;;
17361;SDS011;8798;51.938;4.348;2023-08-31T05:34:28;3.27;;;0.90;;
17361;SDS011;8798;51.938;4.348;2023-08-31T05:37:01;1.83;;;0.70;;
17361;SDS011;8798;51.938;4.348;2023-08-31T05:39:35;3.50;;;0.90;;
17361;SDS011;8798;51.938;4.348;2023-08-31T05:42:10;2.47;;;0.80;;
17361;SDS011;8798;51.938;4.348;2023-08-31T05:44:39;1.00;;;0.70;;
17361;SDS011;8798;51.938;4.348;2023-08-31T05:47:09;0.90;;;0.80;;
17361;SDS011;8798;51.938;4.348;2023-08-31T05:49:38;0.83;;;0.80;;
17361;SDS011;8798;51.938;4.348;2023-08-31T05:52:06;2.23;;;0.53;;
17361;SDS011;8798;51.938;4.348;2023-08-31T05:54:38;2.70;;;1.00;;
17361;SDS011;8798;51.938;4.348;2023-08-31T05:57:27;2.20;;;0.83;;
17361;SDS011;8798;51.938;4.348;2023-08-31T06:00:00;1.73;;;0.70;;
17361;SDS011;8798;51.938;4.348;2023-08-31T06:02:32;3.00;;;0.70;;
17361;SDS011;8798;51.938;4.348;2023-08-31T06:05:11;1.83;;;1.17;;
17361;SDS011;8798;51.938;4.348;2023-08-31T06:07:45;2.57;;;0.90;;
17361;SDS011;8798;51.938;4.348;2023-08-31T06:10:13;1.53;;;1.00;;
17361;SDS011;8798;51.938;4.348;2023-08-31T06:12:42;2.80;;;0.90;;
17361;SDS011;8798;51.938;4.348;2023-08-31T06:15:13;2.63;;;0.73;;
17361;SDS011;8798;51.938;4.348;2023-08-31T06:17:43;4.50;;;1.07;;
17361;SDS011;8798;51.938;4.348;2023-08-31T06:20:13;4.03;;;1.10;;
17361;SDS011;8798;51.938;4.348;2023-08-31T06:22:46;4.67;;;0.90;;
17361;SDS011;8798;51.938;4.348;2023-08-31T06:25:16;2.37;;;0.70;;
17361;SDS011;8798;51.938;4.348;2023-08-31T06:27:49;1.57;;;1.00;;
17361;SDS011;8798;51.938;4.348;2023-08-31T06:30:18;1.53;;;1.00;;
17361;SDS011;8798;51.938;4.348;2023-08-31T06:32:50;1.57;;;0.93;;
17361;SDS011;8798;51.938;4.348;2023-08-31T06:35:19;2.87;;;1.00;;
17361;SDS011;8798;51.938;4.348;2023-08-31T06:37:48;2.20;;;0.80;;
17361;SDS011;8798;51.938;4.348;2023-08-31T06:40:27;1.77;;;0.90;;
17361;SDS011;8798;51.938;4.348;2023-08-31T06:43:01;1.03;;;0.70;;
17361;SDS011;8798;51.938;4.348;2023-08-31T06:45:29;2.10;;;0.97;;
17361;SDS011;8798;51.938;4.348;2023-08-31T06:48:12;2.07;;;0.90;;
17361;SDS011;8798;51.938;4.348;2023-08-31T06:50:45;2.60;;;0.90;;
17361;SDS011;8798;51.938;4.348;2023-08-31T06:53:18;1.67;;;0.70;;
17361;SDS011;8798;51.938;4.348;2023-08-31T06:55:47;1.77;;;0.60;;
17361;SDS011;8798;51.938;4.348;2023-08-31T06:58:17;3.87;;;0.90;;
17361;SDS011;8798;51.938;4.348;2023-08-31T07:00:48;1.13;;;0.70;;
17361;SDS011;8798;51.938;4.348;2023-08-31T07:03:20;0.80;;;0.70;;
17361;SDS011;8798;51.938;4.348;2023-08-31T07:05:52;4.47;;;0.90;;
17361;SDS011;8798;51.938;4.348;2023-08-31T07:08:24;3.43;;;0.80;;
17361;SDS011;8798;51.938;4.348;2023-08-31T07:10:52;0.83;;;0.60;;
17361;SDS011;8798;51.938;4.348;2023-08-31T07:13:25;3.30;;;0.77;;
17361;SDS011;8798;51.938;4.348;2023-08-31T07:15:55;2.97;;;0.83;;
17361;SDS011;8798;51.938;4.348;2023-08-31T07:18:28;1.67;;;1.00;;
17361;SDS011;8798;51.938;4.348;2023-08-31T07:20:59;1.73;;;0.60;;
17361;SDS011;8798;51.938;4.348;2023-08-31T07:23:31;3.00;;;0.70;;
17361;SDS011;8798;51.938;4.348;2023-08-31T07:26:00;0.60;;;0.50;;
17361;SDS011;8798;51.938;4.348;2023-08-31T07:28:41;2.57;;;0.80;;
17361;SDS011;8798;51.938;4.348;2023-08-31T07:31:11;1.67;;;0.70;;
17361;SDS011;8798;51.938;4.348;2023-08-31T07:33:41;1.10;;;0.60;;
17361;SDS011;8798;51.938;4.348;2023-08-31T07:36:09;3.03;;;0.67;;
17361;SDS011;8798;51.938;4.348;2023-08-31T07:38:38;3.40;;;0.80;;
17361;SDS011;8798;51.938;4.348;2023-08-31T07:41:07;2.00;;;0.70;;
17361;SDS011;8798;51.938;4.348;2023-08-31T07:43:38;1.67;;;0.77;;
17361;SDS011;8798;51.938;4.348;2023-08-31T07:46:30;2.50;;;0.80;;
17361;SDS011;8798;51.938;4.348;2023-08-31T07:49:01;2.03;;;0.57;;
17361;SDS011;8798;51.938;4.348;2023-08-31T07:51:32;2.53;;;0.90;;
17361;SDS011;8798;51.938;4.348;2023-08-31T07:54:01;3.33;;;0.67;;
17361;SDS011;8798;51.938;4.348;2023-08-31T07:56:37;0.93;;;0.50;;
17361;SDS011;8798;51.938;4.348;2023-08-31T07:59:08;1.67;;;0.70;;
17361;SDS011;8798;51.938;4.348;2023-08-31T08:01:38;2.73;;;0.90;;
17361;SDS011;8798;51.938;4.348;2023-08-31T08:04:13;3.60;;;0.97;;
17361;SDS011;8798;51.938;4.348;2023-08-31T08:06:49;2.00;;;0.90;;
17361;SDS011;8798;51.938;4.348;2023-08-31T08:09:19;3.30;;;0.70;;
17361;SDS011;8798;51.938;4.348;2023-08-31T08:11:47;3.23;;;0.80;;
17361;SDS011;8798;51.938;4.348;2023-08-31T08:14:26;1.63;;;0.90;;
17361;SDS011;8798;51.938;4.348;2023-08-31T08:16:57;0.97;;;0.70;;
17361;SDS011;8798;51.938;4.348;2023-08-31T08:19:30;1.83;;;0.90;;
17361;SDS011;8798;51.938;4.348;2023-08-31T08:22:03;1.50;;;0.70;;
17361;SDS011;8798;51.938;4.348;2023-08-31T08:24:33;0.73;;;0.50;;
17361;SDS011;8798;51.938;4.348;2023-08-31T08:27:03;1.03;;;0.60;;
17361;SDS011;8798;51.938;4.348;2023-08-31T08:29:32;0.60;;;0.60;;
17361;SDS011;8798;51.938;4.348;2023-08-31T08:32:06;1.60;;;0.70;;
17361;SDS011;8798;51.938;4.348;2023-08-31T08:34:38;2.27;;;0.80;;
17361;SDS011;8798;51.938;4.348;2023-08-31T08:37:08;1.47;;;1.00;;
17361;SDS011;8798;51.938;4.348;2023-08-31T08:39:36;1.50;;;0.70;;
17361;SDS011;8798;51.938;4.348;2023-08-31T08:42:06;0.90;;;0.60;;
17361;SDS011;8798;51.938;4.348;2023-08-31T08:44:39;2.07;;;0.90;;
17361;SDS011;8798;51.938;4.348;2023-08-31T08:47:13;1.63;;;0.60;;
17361;SDS011;8798;51.938;4.348;2023-08-31T08:49:44;2.80;;;0.70;;
17361;SDS011;8798;51.938;4.348;2023-08-31T08:52:13;2.23;;;0.80;;
17361;SDS011;8798;51.938;4.348;2023-08-31T08:54:43;1.10;;;0.63;;
17361;SDS011;8798;51.938;4.348;2023-08-31T08:57:23;3.40;;;1.00;;
17361;SDS011;8798;51.938;4.348;2023-08-31T08:59:50;2.35;;;0.60;;
17361;SDS011;8798;51.938;4.348;2023-08-31T09:02:18;1.52;;;0.60;;
17361;SDS011;8798;51.938;4.348;2023-08-31T09:04:54;2.72;;;0.70;;
17361;SDS011;8798;51.938;4.348;2023-08-31T09:07:25;1.55;;;0.63;;
17361;SDS011;8798;51.938;4.348;2023-08-31T09:09:58;0.60;;;0.50;;
17361;SDS011;8798;51.938;4.348;2023-08-31T09:12:43;1.60;;;0.77;;
17361;SDS011;8798;51.938;4.348;2023-08-31T09:15:13;1.33;;;0.75;;
17361;SDS011;8798;51.938;4.348;2023-08-31T09:17:45;1.58;;;0.60;;
17361;SDS011;8798;51.938;4.348;2023-08-31T09:20:19;1.13;;;0.60;;
17361;SDS011;8798;51.938;4.348;2023-08-31T09:22:50;2.08;;;0.80;;
17361;SDS011;8798;51.938;4.348;2023-08-31T09:25:19;1.13;;;0.60;;
17361;SDS011;8798;51.938;4.348;2023-08-31T09:27:48;1.73;;;0.82;;
17361;SDS011;8798;51.938;4.348;2023-08-31T09:30:24;1.67;;;0.70;;
17361;SDS011;8798;51.938;4.348;2023-08-31T09:32:52;0.85;;;0.55;;
17361;SDS011;8798;51.938;4.348;2023-08-31T09:35:22;1.02;;;0.70;;
17361;SDS011;8798;51.938;4.348;2023-08-31T09:37:56;1.05;;;0.70;;
17361;SDS011;8798;51.938;4.348;2023-08-31T09:40:24;3.35;;;0.70;;
17361;SDS011;8798;51.938;4.348;2023-08-31T09:42:56;1.52;;;0.65;;
17361;SDS011;8798;51.938;4.348;2023-08-31T09:45:28;1.52;;;0.70;;
17361;SDS011;8798;51.938;4.348;2023-08-31T09:48:13;2.55;;;0.70;;
17361;SDS011;8798;51.938;4.348;2023-08-31T09:50:44;2.50;;;0.98;;
17361;SDS011;8798;51.938;4.348;2023-08-31T09:53:13;3.58;;;1.00;;
17361;SDS011;8798;51.938;4.348;2023-08-31T09:55:44;1.50;;;0.70;;
17361;SDS011;8798;51.938;4.348;2023-08-31T09:58:16;2.88;;;0.73;;
17361;SDS011;8798;51.938;4.348;2023-08-31T10:00:50;2.33;;;0.77;;
17361;SDS011;8798;51.938;4.348;2023-08-31T10:03:20;1.33;;;0.70;;
17361;SDS011;8798;51.938;4.348;2023-08-31T10:05:55;1.65;;;0.80;;
17361;SDS011;8798;51.938;4.348;2023-08-31T10:08:24;1.25;;;0.80;;
17361;SDS011;8798;51.938;4.348;2023-08-31T10:10:58;2.30;;;1.10;;
17361;SDS011;8798;51.938;4.348;2023-08-31T10:13:27;1.73;;;0.80;;
17361;SDS011;8798;51.938;4.348;2023-08-31T10:15:59;1.20;;;0.60;;
17361;SDS011;8798;51.938;4.348;2023-08-31T10:18:34;1.63;;;0.50;;
17361;SDS011;8798;51.938;4.348;2023-08-31T10:21:07;0.93;;;0.57;;
17361;SDS011;8798;51.938;4.348;2023-08-31T10:23:43;0.82;;;0.63;;
17361;SDS011;8798;51.938;4.348;2023-08-31T10:29:08;2.17;;;0.90;;
17361;SDS011;8798;51.938;4.348;2023-08-31T10:31:54;1.20;;;0.55;;
17361;SDS011;8798;51.938;4.348;2023-08-31T10:34:33;2.47;;;0.90;;
17361;SDS011;8798;51.938;4.348;2023-08-31T10:37:12;2.17;;;1.00;;
17361;SDS011;8798;51.938;4.348;2023-08-31T10:39:51;1.88;;;0.80;;
17361;SDS011;8798;51.938;4.348;2023-08-31T10:42:45;0.60;;;0.60;;
17361;SDS011;8798;51.938;4.348;2023-08-31T10:45:21;1.70;;;0.80;;
17361;SDS011;8798;51.938;4.348;2023-08-31T10:47:49;1.95;;;0.73;;
17361;SDS011;8798;51.938;4.348;2023-08-31T10:50:19;1.40;;;0.60;;
17361;SDS011;8798;51.938;4.348;2023-08-31T10:52:55;2.72;;;0.50;;
17361;SDS011;8798;51.938;4.348;2023-08-31T10:55:24;0.73;;;0.60;;
17361;SDS011;8798;51.938;4.348;2023-08-31T10:57:53;0.70;;;0.68;;
17361;SDS011;8798;51.938;4.348;2023-08-31T11:03:23;1.35;;;0.68;;
17361;SDS011;8798;51.938;4.348;2023-08-31T11:05:54;2.80;;;0.68;;
17361;SDS011;8798;51.938;4.348;2023-08-31T11:08:24;1.10;;;0.73;;
17361;SDS011;8798;51.938;4.348;2023-08-31T11:10:55;1.40;;;0.75;;
17361;SDS011;8798;51.938;4.348;2023-08-31T11:13:47;3.67;;;0.93;;
17361;SDS011;8798;51.938;4.348;2023-08-31T11:16:31;20.10;;;2.72;;
17361;SDS011;8798;51.938;4.348;2023-08-31T11:18:59;2.05;;;0.90;;
17361;SDS011;8798;51.938;4.348;2023-08-31T11:21:29;2.05;;;0.90;;
17361;SDS011;8798;51.938;4.348;2023-08-31T11:24:02;2.80;;;1.10;;
17361;SDS011;8798;51.938;4.348;2023-08-31T11:26:39;1.63;;;0.82;;
17361;SDS011;8798;51.938;4.348;2023-08-31T11:29:13;1.90;;;0.80;;
17361;SDS011;8798;51.938;4.348;2023-08-31T11:31:41;1.52;;;0.60;;
17361;SDS011;8798;51.938;4.348;2023-08-31T11:34:11;1.48;;;0.85;;
17361;SDS011;8798;51.938;4.348;2023-08-31T11:36:43;2.78;;;0.70;;
17361;SDS011;8798;51.938;4.348;2023-08-31T11:39:21;3.33;;;0.90;;
17361;SDS011;8798;51.938;4.348;2023-08-31T11:41:54;1.40;;;0.60;;
17361;SDS011;8798;51.938;4.348;2023-08-31T11:44:26;3.10;;;1.00;;
17361;SDS011;8798;51.938;4.348;2023-08-31T11:46:54;1.73;;;0.70;;
17361;SDS011;8798;51.938;4.348;2023-08-31T11:49:24;1.48;;;0.60;;
17361;SDS011;8798;51.938;4.348;2023-08-31T11:51:55;1.45;;;0.65;;
17361;SDS011;8798;51.938;4.348;2023-08-31T11:54:25;2.15;;;0.80;;
17361;SDS011;8798;51.938;4.348;2023-08-31T11:56:59;1.27;;;0.60;;
17361;SDS011;8798;51.938;4.348;2023-08-31T11:59:30;1.38;;;0.80;;
17361;SDS011;8798;51.938;4.348;2023-08-31T12:02:08;1.10;;;0.70;;
17361;SDS011;8798;51.938;4.348;2023-08-31T12:04:43;1.67;;;0.90;;
17361;SDS011;8798;51.938;4.348;2023-08-31T12:07:15;3.45;;;1.15;;
17361;SDS011;8798;51.938;4.348;2023-08-31T12:09:53;2.15;;;0.80;;
17361;SDS011;8798;51.938;4.348;2023-08-31T12:12:23;3.03;;;0.80;;
17361;SDS011;8798;51.938;4.348;2023-08-31T12:14:53;3.63;;;0.70;;
17361;SDS011;8798;51.938;4.348;2023-08-31T12:17:22;0.90;;;0.70;;
17361;SDS011;8798;51.938;4.348;2023-08-31T12:19:50;1.95;;;0.80;;
17361;SDS011;8798;51.938;4.348;2023-08-31T12:22:18;1.10;;;0.73;;
17361;SDS011;8798;51.938;4.348;2023-08-31T12:24:49;1.52;;;0.80;;
17361;SDS011;8798;51.938;4.348;2023-08-31T12:27:23;3.28;;;1.00;;
17361;SDS011;8798;51.938;4.348;2023-08-31T12:29:58;1.33;;;0.90;;
17361;SDS011;8798;51.938;4.348;2023-08-31T12:32:28;0.70;;;0.60;;
17361;SDS011;8798;51.938;4.348;2023-08-31T12:35:03;2.28;;;1.00;;
17361;SDS011;8798;51.938;4.348;2023-08-31T12:37:37;2.28;;;1.00;;
17361;SDS011;8798;51.938;4.348;2023-08-31T12:40:09;4.13;;;1.70;;
17361;SDS011;8798;51.938;4.348;2023-08-31T12:42:40;1.55;;;1.00;;
17361;SDS011;8798;51.938;4.348;2023-08-31T12:45:09;3.30;;;1.10;;
17361;SDS011;8798;51.938;4.348;2023-08-31T12:47:39;3.03;;;1.10;;
17361;SDS011;8798;51.938;4.348;2023-08-31T12:50:14;3.63;;;0.80;;
17361;SDS011;8798;51.938;4.348;2023-08-31T12:52:48;0.90;;;0.70;;
17361;SDS011;8798;51.938;4.348;2023-08-31T12:55:16;1.60;;;0.77;;
17361;SDS011;8798;51.938;4.348;2023-08-31T12:57:48;1.88;;;0.88;;
17361;SDS011;8798;51.938;4.348;2023-08-31T13:00:16;3.65;;;0.95;;
17361;SDS011;8798;51.938;4.348;2023-08-31T13:02:46;2.38;;;0.90;;
17361;SDS011;8798;51.938;4.348;2023-08-31T13:05:14;2.53;;;0.90;;
17361;SDS011;8798;51.938;4.348;2023-08-31T13:07:43;1.95;;;0.88;;
17361;SDS011;8798;51.938;4.348;2023-08-31T13:10:11;1.80;;;1.20;;
17361;SDS011;8798;51.938;4.348;2023-08-31T13:12:41;2.30;;;0.80;;
17361;SDS011;8798;51.938;4.348;2023-08-31T13:15:14;2.88;;;1.20;;
17361;SDS011;8798;51.938;4.348;2023-08-31T13:17:46;2.53;;;0.80;;
17361;SDS011;8798;51.938;4.348;2023-08-31T13:20:19;2.10;;;0.75;;
17361;SDS011;8798;51.938;4.348;2023-08-31T13:22:51;1.90;;;0.80;;
17361;SDS011;8798;51.938;4.348;2023-08-31T13:25:22;2.55;;;0.70;;
17361;SDS011;8798;51.938;4.348;2023-08-31T13:27:53;3.30;;;1.05;;
17361;SDS011;8798;51.938;4.348;2023-08-31T13:30:22;2.28;;;1.00;;
17361;SDS011;8798;51.938;4.348;2023-08-31T13:32:50;1.92;;;0.93;;
17361;SDS011;8798;51.938;4.348;2023-08-31T13:35:22;2.47;;;1.10;;
17361;SDS011;8798;51.938;4.348;2023-08-31T13:37:52;2.30;;;0.80;;
17361;SDS011;8798;51.938;4.348;2023-08-31T13:40:21;2.28;;;1.02;;
17361;SDS011;8798;51.938;4.348;2023-08-31T13:42:52;1.50;;;0.90;;
17361;SDS011;8798;51.938;4.348;2023-08-31T13:45:24;2.58;;;0.70;;
17361;SDS011;8798;51.938;4.348;2023-08-31T13:48:01;2.72;;;0.90;;
17361;SDS011;8798;51.938;4.348;2023-08-31T13:50:33;1.50;;;0.70;;
17361;SDS011;8798;51.938;4.348;2023-08-31T13:53:07;2.80;;;0.80;;
17361;SDS011;8798;51.938;4.348;2023-08-31T13:55:38;2.05;;;1.10;;
17361;SDS011;8798;51.938;4.348;2023-08-31T13:58:07;2.47;;;0.93;;
17361;SDS011;8798;51.938;4.348;2023-08-31T14:00:42;2.72;;;1.00;;
17361;SDS011;8798;51.938;4.348;2023-08-31T14:03:12;1.88;;;0.90;;
17361;SDS011;8798;51.938;4.348;2023-08-31T14:05:40;1.90;;;0.80;;
17361;SDS011;8798;51.938;4.348;2023-08-31T14:08:13;0.95;;;0.82;;
17361;SDS011;8798;51.938;4.348;2023-08-31T14:10:42;1.77;;;0.75;;
17361;SDS011;8798;51.938;4.348;2023-08-31T14:13:16;1.65;;;1.00;;
17361;SDS011;8798;51.938;4.348;2023-08-31T14:15:49;1.63;;;0.95;;
17361;SDS011;8798;51.938;4.348;2023-08-31T14:18:20;1.70;;;0.95;;
17361;SDS011;8798;51.938;4.348;2023-08-31T14:20:53;1.73;;;1.08;;
17361;SDS011;8798;51.938;4.348;2023-08-31T14:23:31;1.70;;;0.98;;
17361;SDS011;8798;51.938;4.348;2023-08-31T14:26:05;4.45;;;0.90;;
17361;SDS011;8798;51.938;4.348;2023-08-31T14:28:44;2.95;;;0.90;;
17361;SDS011;8798;51.938;4.348;2023-08-31T14:31:13;3.40;;;0.77;;
17361;SDS011;8798;51.938;4.348;2023-08-31T14:33:51;1.63;;;0.80;;
17361;SDS011;8798;51.938;4.348;2023-08-31T14:36:25;3.00;;;1.25;;
17361;SDS011;8798;51.938;4.348;2023-08-31T14:39:01;1.77;;;0.90;;
17361;SDS011;8798;51.938;4.348;2023-08-31T14:41:37;4.25;;;1.05;;
17361;SDS011;8798;51.938;4.348;2023-08-31T14:44:09;2.90;;;1.13;;
17361;SDS011;8798;51.938;4.348;2023-08-31T14:46:43;1.70;;;1.13;;
17361;SDS011;8798;51.938;4.348;2023-08-31T14:49:12;1.65;;;1.10;;
17361;SDS011;8798;51.938;4.348;2023-08-31T14:51:43;1.23;;;0.80;;
17361;SDS011;8798;51.938;4.348;2023-08-31T14:54:16;2.58;;;1.05;;
17361;SDS011;8798;51.938;4.348;2023-08-31T14:56:50;2.72;;;0.85;;
17361;SDS011;8798;51.938;4.348;2023-08-31T14:59:22;2.80;;;0.95;;
17361;SDS011;8798;51.938;4.348;2023-08-31T15:02:04;1.27;;;0.70;;
17361;SDS011;8798;51.938;4.348;2023-08-31T15:04:37;1.92;;;0.70;;
17361;SDS011;8798;51.938;4.348;2023-08-31T15:07:08;1.45;;;0.93;;
17361;SDS011;8798;51.938;4.348;2023-08-31T15:09:43;3.20;;;0.93;;
17361;SDS011;8798;51.938;4.348;2023-08-31T15:12:15;2.67;;;0.88;;
17361;SDS011;8798;51.938;4.348;2023-08-31T15:14:48;2.90;;;1.00;;
17361;SDS011;8798;51.938;4.348;2023-08-31T15:17:19;2.42;;;0.85;;
17361;SDS011;8798;51.938;4.348;2023-08-31T15:19:51;2.10;;;0.98;;
17361;SDS011;8798;51.938;4.348;2023-08-31T15:22:19;2.33;;;0.93;;
17361;SDS011;8798;51.938;4.348;2023-08-31T15:24:52;1.77;;;0.95;;
17361;SDS011;8798;51.938;4.348;2023-08-31T15:27:24;2.78;;;0.90;;
17361;SDS011;8798;51.938;4.348;2023-08-31T15:30:02;3.25;;;1.00;;
17361;SDS011;8798;51.938;4.348;2023-08-31T15:32:39;2.55;;;0.88;;
17361;SDS011;8798;51.938;4.348;2023-08-31T15:35:08;1.90;;;0.80;;
17361;SDS011;8798;51.938;4.348;2023-08-31T15:37:38;3.30;;;1.05;;